Time;durP1;ratioP1;P1;durP2;ratioP2;P2;SDS_P1;SDS_P2;PMS_P1;PMS_P2;Temp;Humidity;BMP_temperature;BMP_pressure;BME280_temperature;BME280_humidity;BME280_pressure;Samples;Min_cycle;Max_cycle;Signal;HPM_P1;HPM_P2
2021/12/24 00:02:18;;;;;;;218.43;36.05;;;6.00;99.90;;;;;;5052257;28;20045;-78
2021/12/24 00:04:43;;;;;;;232.32;36.05;;;6.00;99.90;;;;;;5018552;28;20060;-78
2021/12/24 00:07:09;;;;;;;266.55;40.33;;;6.00;99.90;;;;;;5071216;28;20419;-78
2021/12/24 00:09:36;;;;;;;281.98;40.70;;;6.00;99.90;;;;;;5074170;28;20497;-78
2021/12/24 00:12:10;;;;;;;404.77;48.35;;;6.00;99.90;;;;;;5054905;28;20047;-78
2021/12/24 00:14:35;;;;;;;382.73;47.00;;;6.00;99.90;;;;;;5073962;28;20123;-78
2021/12/24 00:17:04;;;;;;;374.98;45.55;;;6.00;99.90;;;;;;5073935;28;20137;-78
2021/12/24 00:35:36;;;;;;;187.50;28.65;;;6.30;99.90;;;;;;5073455;28;20052;-77
2021/12/24 00:38:04;;;;;;;182.50;26.75;;;6.40;99.90;;;;;;5073529;28;20262;-77
2021/12/24 00:40:36;;;;;;;223.07;31.02;;;6.40;99.90;;;;;;5072257;28;20123;-77
2021/12/24 00:43:02;;;;;;;152.80;25.30;;;6.50;99.90;;;;;;5072133;28;20045;-77
2021/12/24 00:45:37;;;;;;;133.75;24.83;;;6.50;99.90;;;;;;5073351;28;20372;-78
2021/12/24 00:48:04;;;;;;;178.05;28.30;;;6.50;99.90;;;;;;5072348;28;20055;-77
2021/12/24 00:50:49;;;;;;;133.88;22.40;;;6.50;99.90;;;;;;5073610;28;20064;-78
2021/12/24 00:56:01;;;;;;;131.40;24.05;;;6.60;99.90;;;;;;5073242;28;20108;-78
2021/12/24 00:58:27;;;;;;;138.52;25.55;;;6.70;99.90;;;;;;5072106;28;20040;-78
2021/12/24 01:00:53;;;;;;;93.20;19.65;;;7.00;99.90;;;;;;5073334;28;20162;-78
2021/12/24 01:03:18;;;;;;;132.25;22.45;;;6.70;99.90;;;;;;5073326;28;20502;-78
2021/12/24 01:05:45;;;;;;;70.00;16.25;;;6.70;99.90;;;;;;5073583;28;20493;-78
2021/12/24 01:08:12;;;;;;;79.85;17.52;;;7.20;99.90;;;;;;5073447;28;20116;-77
2021/12/24 01:10:47;;;;;;;57.88;14.77;;;6.60;99.90;;;;;;5071804;28;20043;-78
2021/12/24 01:13:14;;;;;;;60.55;14.30;;;6.70;99.90;;;;;;5073487;28;20514;-78
2021/12/24 01:15:52;;;;;;;70.40;15.75;;;6.70;99.90;;;;;;5073910;28;20128;-78
2021/12/24 01:21:18;;;;;;;46.22;12.15;;;6.70;99.90;;;;;;5073499;28;20044;-78
2021/12/24 01:26:19;;;;;;;57.35;13.25;;;7.10;99.90;;;;;;5077503;28;20406;-77
2021/12/24 01:42:43;;;;;;;59.58;14.68;;;6.80;99.90;;;;;;4995092;28;20405;-78
2021/12/24 01:45:31;;;;;;;68.78;16.23;;;6.70;99.90;;;;;;4978783;28;20074;-78
2021/12/24 01:48:04;;;;;;;62.70;15.73;;;6.70;99.90;;;;;;4962666;28;20135;-78
2021/12/24 01:50:33;;;;;;;116.93;19.67;;;6.70;99.90;;;;;;4995061;28;20054;-78
2021/12/24 01:53:00;;;;;;;74.68;16.23;;;7.10;99.90;;;;;;4995082;28;20062;-78
2021/12/24 01:55:26;;;;;;;90.15;17.83;;;6.70;99.90;;;;;;4995148;28;20126;-78
2021/12/24 01:57:52;;;;;;;65.20;14.90;;;6.70;99.90;;;;;;4979371;28;20462;-78
2021/12/24 02:00:22;;;;;;;63.53;16.13;;;6.70;99.90;;;;;;4978492;28;20096;-78
2021/12/24 02:02:48;;;;;;;54.70;12.95;;;6.70;99.90;;;;;;4994921;28;20062;-78
2021/12/24 02:05:14;;;;;;;61.17;14.82;;;6.70;99.90;;;;;;4995065;28;20050;-77
2021/12/24 02:07:40;;;;;;;63.40;15.85;;;6.80;99.90;;;;;;4994882;28;20062;-77
2021/12/24 02:10:08;;;;;;;47.80;13.55;;;6.80;99.90;;;;;;4994999;28;20038;-78
2021/12/24 02:12:35;;;;;;;62.20;16.75;;;6.80;99.90;;;;;;4994846;28;20058;-78
2021/12/24 02:15:08;;;;;;;76.95;17.20;;;6.80;99.90;;;;;;4978320;28;20058;-78
2021/12/24 02:17:54;;;;;;;67.60;15.50;;;6.90;99.90;;;;;;4978524;28;20062;-77
2021/12/24 02:28:39;;;;;;;106.72;19.77;;;6.90;99.90;;;;;;5075814;28;20146;-78
2021/12/24 02:31:24;;;;;;;104.40;20.27;;;7.00;99.90;;;;;;5076135;28;20036;-77
2021/12/24 02:33:50;;;;;;;95.78;20.27;;;7.00;99.90;;;;;;5073656;28;20418;-78
2021/12/24 02:36:16;;;;;;;78.10;18.92;;;7.10;99.90;;;;;;5075816;28;20391;-77
2021/12/24 02:38:42;;;;;;;85.78;19.25;;;7.30;99.90;;;;;;5075709;28;20055;-78
2021/12/24 02:41:09;;;;;;;88.45;19.77;;;7.40;99.90;;;;;;5074487;28;20072;-78
2021/12/24 02:43:36;;;;;;;100.63;21.77;;;7.50;99.90;;;;;;5076087;28;20064;-78
2021/12/24 02:46:23;;;;;;;100.95;20.60;;;7.60;99.90;;;;;;5075815;28;20048;-78
2021/12/24 02:54:07;;;;;;;77.72;17.67;;;7.70;99.90;;;;;;5075674;28;20084;-78
2021/12/24 02:56:38;;;;;;;105.72;21.17;;;7.70;99.90;;;;;;5074310;28;20095;-78
2021/12/24 02:59:13;;;;;;;87.13;19.67;;;7.70;99.90;;;;;;5075523;28;20044;-77
2021/12/24 03:01:42;;;;;;;93.63;19.65;;;7.90;99.90;;;;;;5075522;28;20040;-78
2021/12/24 03:04:08;;;;;;;96.47;19.08;;;7.70;99.90;;;;;;5075167;28;20036;-77
2021/12/24 03:06:41;;;;;;;77.35;18.27;;;7.80;99.90;;;;;;5075488;28;20045;-78
2021/12/24 03:09:11;;;;;;;98.88;20.40;;;8.30;99.90;;;;;;5075229;28;20044;-77
2021/12/24 03:11:37;;;;;;;77.93;17.08;;;7.80;99.90;;;;;;5074169;28;20063;-78
2021/12/24 03:14:05;;;;;;;59.45;16.63;;;7.90;99.90;;;;;;5075084;28;20036;-78
2021/12/24 03:16:32;;;;;;;71.95;16.92;;;7.80;99.90;;;;;;5075132;28;20059;-77
2021/12/24 03:18:57;;;;;;;82.85;17.95;;;7.80;99.90;;;;;;5073558;28;20040;-77
2021/12/24 03:21:30;;;;;;;75.95;19.48;;;7.70;99.90;;;;;;5075307;28;20105;-77
2021/12/24 03:26:29;;;;;;;104.30;24.40;;;7.70;99.90;;;;;;5075029;28;20040;-78
2021/12/24 03:28:55;;;;;;;98.45;24.17;;;7.90;99.90;;;;;;5074956;28;20454;-78
2021/12/24 03:31:21;;;;;;;101.45;24.98;;;7.80;99.90;;;;;;5074909;28;20123;-78
2021/12/24 03:33:48;;;;;;;113.75;26.73;;;7.90;99.90;;;;;;5074838;28;20136;-78
2021/12/24 03:36:15;;;;;;;107.63;26.20;;;7.80;99.90;;;;;;5074795;28;20048;-78
2021/12/24 03:38:41;;;;;;;110.93;28.25;;;8.30;99.90;;;;;;5074694;28;20080;-77
2021/12/24 03:41:06;;;;;;;118.25;28.23;;;7.80;99.90;;;;;;5074667;28;20079;-78
2021/12/24 03:43:33;;;;;;;95.20;25.83;;;7.70;99.90;;;;;;5074717;28;20463;-78
2021/12/24 03:46:03;;;;;;;111.82;28.13;;;7.80;99.90;;;;;;5074262;28;20135;-78
2021/12/24 03:48:45;;;;;;;99.97;25.08;;;8.30;99.90;;;;;;5074426;28;20060;-78
2021/12/24 03:56:29;;;;;;;88.85;23.85;;;7.70;99.90;;;;;;5074398;28;20084;-79
2021/12/24 03:58:55;;;;;;;97.78;24.35;;;7.70;99.90;;;;;;5074158;28;20037;-77
2021/12/24 04:01:21;;;;;;;90.65;23.05;;;7.70;99.90;;;;;;5074456;28;20479;-78
2021/12/24 04:03:47;;;;;;;86.60;22.15;;;7.80;99.90;;;;;;5074414;28;20040;-78
2021/12/24 04:06:12;;;;;;;81.72;22.60;;;7.70;99.90;;;;;;5074160;28;20055;-78
2021/12/24 04:08:38;;;;;;;76.28;20.88;;;7.70;99.90;;;;;;5072672;28;20048;-78
2021/12/24 04:11:05;;;;;;;83.82;21.60;;;7.70;99.90;;;;;;5074136;28;20166;-78
2021/12/24 04:13:31;;;;;;;75.50;21.73;;;7.80;99.90;;;;;;5073808;28;20151;-78
2021/12/24 04:15:57;;;;;;;78.72;21.95;;;7.70;99.90;;;;;;5074122;28;20059;-78
2021/12/24 04:26:28;;;;;;;76.80;22.73;;;7.80;99.90;;;;;;5074086;28;20402;-78
2021/12/24 04:28:54;;;;;;;70.60;21.20;;;7.80;99.90;;;;;;5055920;28;20044;-78
2021/12/24 04:31:26;;;;;;;75.32;22.35;;;7.80;99.90;;;;;;5073821;28;20194;-78
2021/12/24 04:33:51;;;;;;;82.45;22.77;;;7.80;99.90;;;;;;5055973;28;20044;-77
2021/12/24 04:36:59;;;;;;;80.38;23.23;;;7.80;99.90;;;;;;5073657;28;20105;-78
2021/12/24 05:03:32;;;;;;;69.85;17.63;;;7.90;99.90;;;;;;5072002;28;20443;-78
2021/12/24 05:06:27;;;;;;;;;;;7.90;99.90;;;;;;5073663;28;20047;-78
2021/12/24 05:08:58;;;;;;;58.88;16.92;;;7.80;99.90;;;;;;5073380;28;19926;-78
2021/12/24 05:11:24;;;;;;;62.00;17.60;;;7.80;99.90;;;;;;5073388;28;20040;-78
2021/12/24 05:13:52;;;;;;;55.35;15.38;;;7.80;99.90;;;;;;5071923;28;20384;-78
2021/12/24 05:21:33;;;;;;;52.92;15.20;;;7.80;99.90;;;;;;5073205;28;20041;-78
2021/12/24 05:21:51;;;;;;;44.80;13.93;;;7.90;99.90;;;;;;5073418;28;20087;-78
2021/12/24 05:24:20;;;;;;;42.58;13.40;;;7.80;99.90;;;;;;5071950;28;20437;-78
2021/12/24 05:26:52;;;;;;;51.03;13.52;;;7.90;99.90;;;;;;5073104;28;20052;-78
2021/12/24 05:29:18;;;;;;;49.63;13.05;;;7.80;99.90;;;;;;5071857;28;20052;-78
2021/12/24 05:31:45;;;;;;;42.50;12.75;;;7.80;99.90;;;;;;5073206;28;20068;-78
2021/12/24 05:34:11;;;;;;;39.40;10.90;;;7.80;99.90;;;;;;5073086;28;20087;-78
2021/12/24 05:36:37;;;;;;;45.95;12.50;;;7.80;99.90;;;;;;5071829;28;20055;-78
2021/12/24 05:39:04;;;;;;;39.53;10.68;;;7.80;99.90;;;;;;5073193;28;20045;-78
2021/12/24 05:41:30;;;;;;;40.40;11.93;;;7.80;99.90;;;;;;5072903;28;20032;-78
2021/12/24 05:43:58;;;;;;;34.60;11.57;;;8.20;99.90;;;;;;5071751;28;20054;-78
2021/12/24 05:46:23;;;;;;;42.60;11.40;;;7.80;99.90;;;;;;5073317;28;20053;-78
2021/12/24 05:48:49;;;;;;;42.22;12.13;;;7.80;99.90;;;;;;5072957;28;20052;-78
2021/12/24 05:51:15;;;;;;;42.63;11.63;;;7.80;99.90;;;;;;5072958;28;20106;-78
2021/12/24 05:53:40;;;;;;;34.38;11.15;;;7.80;99.90;;;;;;5072760;28;20036;-78
2021/12/24 05:56:06;;;;;;;30.83;11.25;;;7.80;99.90;;;;;;5073207;28;20151;-78
2021/12/24 05:58:32;;;;;;;41.03;12.23;;;7.80;99.90;;;;;;5072796;28;20486;-78
2021/12/24 06:00:58;;;;;;;38.53;11.02;;;7.80;99.90;;;;;;5073327;28;20051;-78
2021/12/24 06:03:24;;;;;;;34.30;11.07;;;7.80;99.90;;;;;;5073062;28;20115;-78
2021/12/24 06:05:49;;;;;;;46.75;10.90;;;7.80;99.90;;;;;;5071549;28;20120;-78
2021/12/24 06:08:15;;;;;;;35.25;10.10;;;7.80;99.90;;;;;;5071734;28;20048;-78
2021/12/24 06:10:42;;;;;;;31.35;9.48;;;7.90;99.90;;;;;;5075860;28;20036;-78
2021/12/24 06:13:08;;;;;;;37.15;9.20;;;7.80;99.90;;;;;;5076158;28;20043;-78
2021/12/24 06:15:42;;;;;;;33.50;9.88;;;7.80;99.90;;;;;;5076427;28;20127;-78
2021/12/24 06:18:29;;;;;;;29.88;9.30;;;7.80;99.90;;;;;;5092118;28;20133;-78
2021/12/24 06:20:57;;;;;;;30.98;8.65;;;8.00;99.90;;;;;;5076465;28;20048;-78
2021/12/24 06:23:24;;;;;;;28.38;9.07;;;7.80;99.90;;;;;;5074981;28;20036;-78
2021/12/24 06:25:53;;;;;;;36.35;8.90;;;7.80;99.90;;;;;;5076022;28;20044;-78
2021/12/24 06:28:19;;;;;;;39.97;8.90;;;7.80;99.90;;;;;;5076225;28;20052;-78
2021/12/24 06:30:45;;;;;;;36.28;9.52;;;7.80;99.90;;;;;;5076229;28;20067;-78
2021/12/24 06:33:11;;;;;;;28.98;8.52;;;7.80;99.90;;;;;;5074457;28;20455;-78
2021/12/24 06:35:38;;;;;;;33.80;8.23;;;7.80;99.90;;;;;;5075949;28;20063;-78
2021/12/24 06:38:04;;;;;;;22.98;7.45;;;7.80;99.90;;;;;;5075869;28;20032;-78
2021/12/24 06:40:31;;;;;;;31.80;8.13;;;8.00;99.90;;;;;;5075790;28;20119;-78
2021/12/24 06:42:57;;;;;;;29.23;8.20;;;7.80;99.90;;;;;;5076048;28;20033;-78
2021/12/24 06:45:24;;;;;;;23.05;8.10;;;7.90;99.90;;;;;;5076005;28;20444;-78
2021/12/24 06:47:52;;;;;;;25.80;7.07;;;7.90;99.90;;;;;;5075744;28;20040;-78
2021/12/24 06:50:18;;;;;;;22.90;7.50;;;7.80;99.90;;;;;;5074303;28;20041;-78
2021/12/24 06:52:43;;;;;;;31.25;8.32;;;7.90;99.90;;;;;;5075531;28;20521;-78
2021/12/24 06:55:10;;;;;;;29.67;7.50;;;7.90;99.90;;;;;;5074268;28;20126;-78
2021/12/24 06:57:37;;;;;;;30.88;8.45;;;8.20;99.90;;;;;;5075852;28;20036;-78
2021/12/24 07:00:05;;;;;;;29.30;7.85;;;7.80;99.90;;;;;;5074472;28;20433;-78
2021/12/24 07:02:30;;;;;;;30.40;7.53;;;7.80;99.90;;;;;;5075444;28;20119;-78
2021/12/24 07:04:56;;;;;;;24.83;7.40;;;8.10;99.90;;;;;;5074502;28;20131;-78
2021/12/24 07:07:22;;;;;;;24.02;7.13;;;7.80;99.90;;;;;;5074184;28;20048;-78
2021/12/24 07:09:47;;;;;;;23.13;6.72;;;7.90;99.90;;;;;;5075255;28;20044;-78
2021/12/24 07:12:14;;;;;;;21.80;6.20;;;8.00;99.90;;;;;;5075175;28;20037;-78
2021/12/24 07:14:41;;;;;;;19.80;6.18;;;8.00;99.90;;;;;;5073643;28;20090;-78
2021/12/24 07:17:08;;;;;;;23.27;6.10;;;8.00;99.90;;;;;;5074253;28;20044;-77
2021/12/24 07:19:34;;;;;;;16.98;5.50;;;7.80;99.90;;;;;;5073559;28;20066;-78
2021/12/24 07:21:59;;;;;;;18.63;5.90;;;8.00;99.90;;;;;;5073747;28;20048;-78
2021/12/24 07:24:25;;;;;;;19.75;5.68;;;7.80;99.90;;;;;;5073680;28;20471;-78
2021/12/24 07:26:51;;;;;;;16.90;5.03;;;8.10;99.90;;;;;;5073871;28;20060;-78
2021/12/24 07:29:16;;;;;;;20.48;5.18;;;7.90;99.90;;;;;;5075040;28;20132;-78
2021/12/24 07:31:42;;;;;;;20.55;6.32;;;7.90;99.90;;;;;;5073564;28;20041;-78
2021/12/24 07:34:08;;;;;;;22.58;5.68;;;7.90;99.90;;;;;;5074825;28;20048;-78
2021/12/24 07:36:33;;;;;;;24.00;5.55;;;8.30;99.90;;;;;;5073439;28;20059;-78
2021/12/24 07:38:59;;;;;;;27.63;6.45;;;7.90;99.90;;;;;;5074685;28;20380;-78
2021/12/24 07:41:25;;;;;;;28.35;5.70;;;7.90;99.90;;;;;;5074478;28;20044;-78
2021/12/24 07:43:51;;;;;;;23.75;6.22;;;7.90;99.90;;;;;;5074786;28;20080;-78
2021/12/24 07:46:18;;;;;;;24.42;5.72;;;8.20;99.90;;;;;;5073206;28;20047;-78
2021/12/24 07:48:50;;;;;;;28.55;6.18;;;7.90;99.90;;;;;;5072905;28;20055;-78
2021/12/24 07:54:03;;;;;;;25.92;5.80;;;7.90;99.90;;;;;;5074184;28;20048;-78
2021/12/24 07:56:31;;;;;;;26.85;5.85;;;7.80;99.90;;;;;;5074750;28;20032;-79
2021/12/24 07:58:58;;;;;;;20.05;5.53;;;7.90;99.90;;;;;;5074427;28;20094;-78
2021/12/24 08:01:25;;;;;;;33.10;6.00;;;7.90;99.90;;;;;;5073211;28;20059;-78
2021/12/24 08:03:52;;;;;;;32.75;6.50;;;8.30;99.90;;;;;;5073288;28;20036;-78
2021/12/24 08:06:20;;;;;;;24.75;5.40;;;7.90;99.90;;;;;;5074285;28;20040;-78
2021/12/24 08:08:46;;;;;;;28.65;5.57;;;8.00;99.90;;;;;;5090071;28;20399;-78
2021/12/24 08:11:11;;;;;;;27.20;5.85;;;7.90;99.90;;;;;;5074307;28;20037;-78
2021/12/24 08:13:37;;;;;;;26.42;5.43;;;7.90;99.90;;;;;;5074198;28;20036;-78
2021/12/24 08:16:03;;;;;;;28.23;5.45;;;7.90;99.90;;;;;;5073977;28;20045;-78
2021/12/24 08:18:29;;;;;;;25.35;5.38;;;7.90;99.90;;;;;;5074132;28;20044;-79
2021/12/24 08:20:55;;;;;;;18.35;4.30;;;8.00;99.90;;;;;;5075940;22;20044;-78
2021/12/24 08:23:21;;;;;;;22.77;6.00;;;8.30;99.90;;;;;;5053209;22;20054;-79
2021/12/24 08:25:46;;;;;;;26.73;4.93;;;7.90;99.90;;;;;;5074006;28;20380;-79
2021/12/24 08:28:12;;;;;;;21.60;4.72;;;8.30;99.90;;;;;;5056121;28;20036;-79
2021/12/24 08:30:38;;;;;;;16.58;5.10;;;7.90;99.90;;;;;;5065650;22;20146;-80
2021/12/24 08:33:04;;;;;;;20.70;4.90;;;8.00;99.90;;;;;;5054700;28;20410;-79
2021/12/24 08:35:30;;;;;;;20.35;5.18;;;8.40;99.90;;;;;;5063454;22;20503;-79
2021/12/24 08:37:56;;;;;;;20.60;5.43;;;8.00;99.90;;;;;;5055771;28;20066;-79
2021/12/24 08:40:22;;;;;;;23.77;5.43;;;8.10;99.90;;;;;;5063699;22;20049;-79
2021/12/24 08:42:47;;;;;;;22.77;5.45;;;8.00;99.90;;;;;;5088164;22;20415;-79
2021/12/24 08:45:13;;;;;;;22.60;5.22;;;8.10;99.90;;;;;;5056083;28;20139;-79
2021/12/24 08:47:42;;;;;;;31.27;5.43;;;8.30;99.90;;;;;;5072542;22;20144;-80
2021/12/24 08:50:11;;;;;;;22.48;4.82;;;7.90;99.90;;;;;;5070086;22;20040;-79
2021/12/24 08:52:37;;;;;;;17.60;5.00;;;7.90;99.90;;;;;;5063273;22;20403;-79
2021/12/24 08:55:03;;;;;;;24.08;5.82;;;8.00;99.90;;;;;;5072252;28;20052;-79
2021/12/24 08:57:29;;;;;;;17.52;4.75;;;7.90;99.90;;;;;;5072628;28;20120;-79
2021/12/24 08:59:54;;;;;;;22.98;4.68;;;7.90;99.90;;;;;;5055572;28;20165;-79
2021/12/24 09:02:20;;;;;;;29.42;5.45;;;7.90;99.90;;;;;;5072569;28;20123;-78
2021/12/24 09:04:46;;;;;;;28.85;5.63;;;7.90;99.90;;;;;;5073424;28;20198;-79
2021/12/24 09:07:11;;;;;;;26.25;5.53;;;8.20;99.90;;;;;;5055692;28;20048;-77
2021/12/24 09:09:37;;;;;;;21.52;5.22;;;7.90;99.90;;;;;;5073219;28;20048;-78
2021/12/24 09:12:03;;;;;;;17.45;4.45;;;8.00;99.90;;;;;;5073567;28;20041;-78
2021/12/24 09:14:29;;;;;;;18.00;4.88;;;8.00;99.90;;;;;;5072109;28;20044;-78
2021/12/24 09:16:55;;;;;;;22.85;5.00;;;8.10;99.90;;;;;;5055353;28;20139;-78
2021/12/24 09:19:25;;;;;;;20.63;4.72;;;8.00;99.90;;;;;;5072319;28;20051;-78
2021/12/24 09:21:52;;;;;;;21.65;6.03;;;8.20;99.90;;;;;;5055282;28;20479;-78
2021/12/24 09:24:19;;;;;;;22.88;5.30;;;8.00;99.90;;;;;;5056233;28;20040;-81
2021/12/24 09:26:45;;;;;;;25.48;6.18;;;8.10;99.90;;;;;;5076216;28;20131;-81
2021/12/24 09:29:11;;;;;;;21.80;5.70;;;8.10;99.90;;;;;;5058461;28;20463;-81
2021/12/24 09:31:38;;;;;;;15.38;4.75;;;8.40;99.90;;;;;;5074254;28;20044;-82
2021/12/24 09:34:04;;;;;;;22.70;4.97;;;8.10;99.90;;;;;;5074026;28;20536;-80
2021/12/24 09:36:30;;;;;;;25.95;6.00;;;8.80;99.90;;;;;;5074015;28;20154;-81
2021/12/24 09:38:58;;;;;;;25.77;5.47;;;8.50;99.90;;;;;;5074554;28;20041;-80
2021/12/24 09:41:24;;;;;;;21.10;4.85;;;8.20;99.90;;;;;;5057525;28;20135;-80
2021/12/24 09:43:51;;;;;;;20.92;4.63;;;8.20;99.90;;;;;;5076698;28;20080;-80
2021/12/24 09:46:17;;;;;;;22.17;4.95;;;8.20;99.90;;;;;;5060099;28;20041;-78
2021/12/24 09:48:42;;;;;;;24.70;5.50;;;8.20;99.90;;;;;;5058876;28;20067;-78
2021/12/24 09:51:09;;;;;;;23.88;5.65;;;8.10;99.90;;;;;;5075761;28;20072;-79
2021/12/24 09:53:37;;;;;;;24.30;5.55;;;7.90;99.90;;;;;;5078711;28;20048;-78
2021/12/24 09:56:04;;;;;;;17.60;4.93;;;8.40;99.90;;;;;;5076704;28;20487;-78
2021/12/24 09:58:30;;;;;;;22.73;5.60;;;8.10;99.90;;;;;;5076554;28;20487;-78
2021/12/24 10:00:56;;;;;;;26.33;5.72;;;8.50;99.90;;;;;;5075592;28;20048;-78
2021/12/24 10:03:33;;;;;;;27.42;5.63;;;8.10;99.90;;;;;;5076678;28;20516;-78
2021/12/24 10:06:00;;;;;;;30.30;6.25;;;8.20;99.90;;;;;;5077645;28;20056;-81
2021/12/24 10:08:27;;;;;;;23.70;6.38;;;8.70;99.90;;;;;;5076706;28;20418;-81
2021/12/24 10:11:00;;;;;;;25.35;6.40;;;8.10;99.90;;;;;;5077275;28;20048;-81
2021/12/24 10:13:43;;;;;;;24.30;6.32;;;8.30;99.90;;;;;;5078291;28;20178;-81
2021/12/24 10:16:17;;;;;;;28.17;6.05;;;8.20;99.90;;;;;;5077246;28;20094;-81
2021/12/24 10:18:48;;;;;;;20.00;5.50;;;8.20;99.90;;;;;;5076913;28;20518;-80
2021/12/24 10:21:19;;;;;;;25.05;5.97;;;8.20;99.90;;;;;;5077985;28;20046;-81
2021/12/24 10:23:53;;;;;;;26.73;6.28;;;8.20;99.90;;;;;;5078290;28;20043;-81
2021/12/24 10:26:34;;;;;;;19.17;5.80;;;8.20;99.90;;;;;;5076442;28;20040;-81
2021/12/24 10:29:10;;;;;;;16.88;4.63;;;8.10;99.90;;;;;;5060622;28;20045;-80
2021/12/24 10:31:45;;;;;;;15.40;4.35;;;8.10;99.90;;;;;;5078142;28;20051;-81
2021/12/24 10:34:20;;;;;;;15.25;4.43;;;8.10;99.90;;;;;;5078029;28;20049;-81
2021/12/24 10:37:02;;;;;;;;;;;8.00;99.90;;;;;;5077365;28;20452;-81
2021/12/24 10:39:37;;;;;;;11.35;3.20;;;8.00;99.90;;;;;;5076371;28;20363;-78
2021/12/24 10:42:07;;;;;;;11.85;3.10;;;8.00;99.90;;;;;;5074983;28;20052;-78
2021/12/24 10:44:35;;;;;;;10.50;3.03;;;7.90;99.90;;;;;;5075418;28;20128;-78
2021/12/24 10:47:12;;;;;;;9.45;2.88;;;7.90;99.90;;;;;;5074885;28;20391;-80
2021/12/24 10:53:12;;;;;;;3.55;1.40;;;7.80;99.90;;;;;;5074356;28;20494;-78
2021/12/24 10:55:45;;;;;;;3.33;1.05;;;7.60;99.90;;;;;;5073564;28;20048;-78
2021/12/24 10:58:17;;;;;;;2.40;0.90;;;7.80;99.90;;;;;;5075652;28;20039;-78
2021/12/24 11:00:51;;;;;;;3.78;1.00;;;7.80;99.90;;;;;;5075570;28;20045;-78
2021/12/24 11:03:22;;;;;;;2.22;1.20;;;7.10;99.90;;;;;;5075966;28;20040;-78
2021/12/24 11:05:51;;;;;;;2.28;1.10;;;7.10;99.90;;;;;;5075588;28;20049;-79
2021/12/24 11:08:20;;;;;;;2.42;1.30;;;7.00;99.90;;;;;;5057930;28;20434;-78
2021/12/24 11:10:51;;;;;;;3.53;1.30;;;7.20;99.90;;;;;;5075526;28;20044;-78
2021/12/24 11:13:20;;;;;;;2.22;1.30;;;6.90;99.90;;;;;;5075169;28;20048;-77
2021/12/24 11:15:52;;;;;;;2.70;1.48;;;6.90;99.90;;;;;;5075312;28;20178;-77
2021/12/24 11:18:27;;;;;;;2.95;1.67;;;6.80;99.90;;;;;;5075416;28;20032;-77
2021/12/24 11:20:53;;;;;;;2.40;1.30;;;6.80;99.90;;;;;;5074930;28;20079;-77
2021/12/24 11:23:21;;;;;;;3.33;1.70;;;6.70;99.90;;;;;;5074895;28;20048;-77
2021/12/24 11:25:54;;;;;;;3.67;1.90;;;7.00;99.90;;;;;;5090497;28;20048;-77
2021/12/24 11:28:22;;;;;;;3.72;1.60;;;6.70;99.90;;;;;;5074967;28;20429;-77
2021/12/24 11:30:52;;;;;;;3.00;1.67;;;6.70;99.90;;;;;;5075028;28;20068;-77
2021/12/24 11:33:24;;;;;;;3.78;2.00;;;6.70;99.90;;;;;;5073566;28;20482;-78
2021/12/24 11:35:52;;;;;;;3.65;2.05;;;6.80;99.90;;;;;;5074745;28;20044;-76
2021/12/24 11:38:24;;;;;;;3.42;1.92;;;6.80;99.90;;;;;;5074541;28;20131;-77
2021/12/24 11:40:52;;;;;;;3.67;1.98;;;6.70;99.90;;;;;;5074416;28;20072;-77
2021/12/24 11:43:20;;;;;;;3.00;1.80;;;6.80;99.90;;;;;;5074950;28;20033;-77
2021/12/24 11:45:46;;;;;;;3.22;1.67;;;6.80;99.90;;;;;;5073266;28;20048;-77
2021/12/24 11:48:12;;;;;;;3.72;2.03;;;6.70;99.90;;;;;;5074577;28;20047;-77
2021/12/24 11:50:38;;;;;;;4.03;2.10;;;6.70;99.90;;;;;;5074425;28;20033;-77
2021/12/24 11:53:09;;;;;;;4.25;1.80;;;6.80;99.90;;;;;;5074152;28;20036;-77
2021/12/24 11:55:41;;;;;;;3.45;2.00;;;6.80;99.90;;;;;;5072821;28;20051;-78
2021/12/24 11:58:21;;;;;;;3.60;1.67;;;6.80;99.90;;;;;;5074427;28;20036;-77
2021/12/24 12:00:51;;;;;;;3.22;1.70;;;6.90;99.90;;;;;;5072768;28;20056;-78
2021/12/24 12:03:38;;;;;;;3.65;1.63;;;6.90;99.90;;;;;;5074195;28;20051;-77
2021/12/24 12:06:06;;;;;;;3.17;1.75;;;7.10;99.90;;;;;;5072587;28;20055;-77
2021/12/24 12:08:36;;;;;;;4.70;1.83;;;7.00;99.90;;;;;;5074164;28;20506;-78
2021/12/24 12:11:14;;;;;;;4.70;1.90;;;7.10;99.90;;;;;;5072600;28;20100;-77
2021/12/24 12:13:44;;;;;;;4.72;1.65;;;7.10;99.90;;;;;;5074057;28;20049;-77
2021/12/24 12:16:13;;;;;;;3.00;1.55;;;7.20;99.90;;;;;;5072604;28;20060;-77
2021/12/24 12:18:44;;;;;;;3.85;2.10;;;7.20;99.90;;;;;;5073771;28;20118;-77
2021/12/24 12:21:15;;;;;;;4.18;1.70;;;7.10;99.90;;;;;;5072494;28;20044;-77
2021/12/24 12:24:57;;;;;;;4.88;2.20;;;7.20;99.90;;;;;;5073997;28;20378;-77
2021/12/24 12:26:50;;;;;;;3.45;1.95;;;7.20;99.90;;;;;;5073647;28;20052;-77
2021/12/24 12:29:23;;;;;;;3.78;1.83;;;7.20;99.90;;;;;;5073654;28;20052;-78
2021/12/24 12:31:54;;;;;;;3.45;2.13;;;7.20;99.90;;;;;;5073462;28;20432;-77
2021/12/24 12:34:41;;;;;;;4.82;2.63;;;7.20;99.90;;;;;;5073491;28;20498;-77
2021/12/24 12:37:21;;;;;;;3.72;2.30;;;7.20;99.90;;;;;;5072346;28;20079;-78
2021/12/24 12:39:55;;;;;;;5.05;2.35;;;7.20;99.90;;;;;;5073463;28;20111;-78
2021/12/24 12:42:24;;;;;;;4.22;2.50;;;7.10;99.90;;;;;;5073438;28;20048;-77
2021/12/24 12:44:54;;;;;;;3.90;2.33;;;7.10;99.90;;;;;;5072153;28;20131;-77
2021/12/24 12:47:27;;;;;;;4.60;2.40;;;7.10;99.90;;;;;;5073645;28;20368;-77
2021/12/24 12:50:16;;;;;;;4.95;2.80;;;7.10;99.90;;;;;;5073465;28;20049;-78
2021/12/24 12:52:42;;;;;;;5.85;2.72;;;7.00;99.90;;;;;;5073202;28;20056;-78
2021/12/24 12:55:28;;;;;;;4.95;2.55;;;7.00;99.90;;;;;;5072042;28;20060;-77
2021/12/24 12:58:19;;;;;;;4.45;2.60;;;6.90;99.90;;;;;;5072021;28;20483;-78
2021/12/24 13:01:06;;;;;;;4.97;2.45;;;6.80;99.90;;;;;;5072069;28;20494;-78
2021/12/24 13:03:33;;;;;;;4.75;2.55;;;6.80;99.90;;;;;;5073619;28;20048;-78
2021/12/24 13:06:05;;;;;;;3.75;2.42;;;6.90;99.90;;;;;;5073541;28;20045;-78
2021/12/24 13:08:34;;;;;;;4.60;2.40;;;6.70;99.90;;;;;;5073374;28;20102;-77
2021/12/24 13:11:12;;;;;;;5.00;2.70;;;6.70;99.90;;;;;;5072197;28;20114;-78
2021/12/24 13:13:44;;;;;;;3.42;2.28;;;6.70;99.90;;;;;;5073321;28;20044;-77
2021/12/24 13:16:17;;;;;;;4.50;2.60;;;6.60;99.90;;;;;;5073357;28;20048;-77
2021/12/24 13:18:52;;;;;;;4.30;2.67;;;6.60;99.90;;;;;;5073605;28;20479;-77
2021/12/24 13:24:13;;;;;;;4.20;2.63;;;6.50;99.90;;;;;;5077127;28;20451;-78
2021/12/24 13:26:39;;;;;;;4.25;2.58;;;6.50;99.90;;;;;;5076056;28;20034;-78
2021/12/24 13:29:16;;;;;;;5.15;2.63;;;6.50;99.90;;;;;;5077345;28;20127;-77
2021/12/24 13:31:48;;;;;;;4.95;2.97;;;6.60;99.90;;;;;;5075632;28;20044;-77
2021/12/24 13:34:16;;;;;;;5.68;2.97;;;6.40;99.90;;;;;;5075229;28;20032;-78
2021/12/24 13:36:41;;;;;;;5.43;3.00;;;6.40;99.90;;;;;;5092485;28;20055;-77
2021/12/24 13:39:13;;;;;;;6.00;3.25;;;6.40;99.90;;;;;;5076952;28;20032;-78
2021/12/24 13:41:40;;;;;;;4.97;3.10;;;6.40;99.90;;;;;;5076740;28;20091;-77
2021/12/24 13:44:07;;;;;;;5.28;3.20;;;6.40;99.90;;;;;;5076631;28;20470;-77
2021/12/24 13:46:36;;;;;;;5.45;3.00;;;6.40;99.90;;;;;;5075302;28;20123;-78
2021/12/24 13:49:23;;;;;;;5.35;3.30;;;6.40;99.90;;;;;;5076409;28;20056;-77
2021/12/24 13:54:36;;;;;;;5.25;3.20;;;6.50;99.90;;;;;;5076356;28;20052;-77
2021/12/24 13:57:05;;;;;;;6.78;3.65;;;6.70;99.90;;;;;;5076529;28;20055;-77
2021/12/24 13:59:31;;;;;;;4.88;3.13;;;6.50;99.90;;;;;;5075361;28;20044;-78
2021/12/24 14:01:59;;;;;;;5.38;3.05;;;6.50;99.90;;;;;;5076637;28;20424;-77
2021/12/24 14:04:25;;;;;;;5.20;3.20;;;6.50;99.90;;;;;;5076557;28;20059;-77
2021/12/24 14:06:57;;;;;;;5.30;2.88;;;6.50;99.90;;;;;;5076295;28;20037;-77
2021/12/24 14:09:30;;;;;;;5.00;2.92;;;6.50;99.90;;;;;;5076221;28;20534;-77
2021/12/24 14:11:58;;;;;;;5.22;3.00;;;6.50;99.90;;;;;;5076111;28;20029;-78
2021/12/24 14:14:38;;;;;;;6.47;2.70;;;6.50;99.90;;;;;;5076272;28;20045;-78
2021/12/24 14:20:01;;;;;;;5.35;3.03;;;6.40;99.90;;;;;;5075872;28;20466;-77
2021/12/24 14:22:32;;;;;;;5.25;2.90;;;6.40;99.90;;;;;;5076026;28;20101;-78
2021/12/24 14:25:10;;;;;;;5.15;3.33;;;6.40;99.90;;;;;;5076055;28;20087;-78
2021/12/24 14:27:38;;;;;;;5.45;3.00;;;6.40;99.90;;;;;;5076235;28;20171;-77
2021/12/24 14:30:09;;;;;;;5.68;3.17;;;6.40;99.90;;;;;;5074932;28;20098;-78
2021/12/24 14:32:48;;;;;;;5.43;3.10;;;6.40;99.90;;;;;;5076072;28;20052;-78
2021/12/24 14:35:15;;;;;;;5.70;3.30;;;6.40;99.90;;;;;;5075753;28;20087;-78
2021/12/24 14:37:43;;;;;;;6.53;3.40;;;6.40;99.90;;;;;;5074506;28;20127;-78
2021/12/24 14:40:09;;;;;;;7.25;4.20;;;6.50;99.90;;;;;;5091503;28;20066;-78
2021/12/24 14:42:46;;;;;;;8.77;5.50;;;6.40;99.90;;;;;;5076369;28;20112;-79
2021/12/24 14:45:14;;;;;;;7.13;4.25;;;6.40;99.90;;;;;;5058158;28;20534;-78
2021/12/24 14:47:41;;;;;;;7.45;4.70;;;6.40;99.90;;;;;;5075768;28;20040;-78